RJBT(METAR)
09/15 18:00
METAR RJBT 150900Z 35004KT 310V030 9999 FEW015 24/21 Q1008 RMK
1CU015 A2977=
戻る
トップページへ戻る
IMOC Co,.Ltd.